Time;durP1;ratioP1;P1;durP2;ratioP2;P2;SDS_P1;SDS_P2;PMS_P1;PMS_P2;Temp;Humidity;BMP_temperature;BMP_pressure;BME280_temperature;BME280_humidity;BME280_pressure;Samples;Min_cycle;Max_cycle;Signal;HPM_P1;HPM_P2
2022/03/15 00:00:22;;;;;;;24.33;6.60;;;11.00;99.90;;;;;;4068766;29;20664;-93
2022/03/15 00:02:23;;;;;;;19.55;6.22;;;11.10;99.90;;;;;;4084462;29;20629;-94
2022/03/15 00:04:24;;;;;;;19.63;6.90;;;11.10;99.90;;;;;;4068819;29;20185;-93
2022/03/15 00:06:25;;;;;;;14.30;6.05;;;11.00;99.90;;;;;;4100239;28;20293;-92
2022/03/15 00:08:26;;;;;;;21.70;6.78;;;10.90;99.90;;;;;;4084261;29;20672;-94
2022/03/15 00:10:27;;;;;;;20.95;6.22;;;10.90;99.90;;;;;;4099960;28;20639;-94
2022/03/15 00:12:29;;;;;;;17.58;6.03;;;10.80;99.90;;;;;;4100119;28;20226;-94
2022/03/15 00:14:29;;;;;;;17.55;6.00;;;10.70;99.90;;;;;;4068577;29;20187;-93
2022/03/15 00:16:30;;;;;;;18.63;6.50;;;10.70;99.90;;;;;;4100034;28;20166;-93
2022/03/15 00:18:31;;;;;;;24.03;7.53;;;10.60;99.90;;;;;;4084425;28;20792;-92
2022/03/15 00:20:32;;;;;;;19.27;5.95;;;10.70;99.90;;;;;;4071692;29;20176;-93
2022/03/15 00:22:34;;;;;;;21.67;6.93;;;10.70;99.90;;;;;;4087395;29;20211;-93
2022/03/15 00:24:35;;;;;;;21.77;7.10;;;10.70;99.90;;;;;;4103174;28;20662;-94
2022/03/15 00:26:36;;;;;;;17.70;6.05;;;10.70;99.90;;;;;;4087198;29;20171;-93
2022/03/15 00:28:45;;;;;;;17.25;7.10;;;10.50;99.90;;;;;;4072430;29;20206;-94
2022/03/15 00:30:46;;;;;;;22.80;6.78;;;10.50;99.90;;;;;;4103174;28;20174;-95
2022/03/15 00:32:47;;;;;;;20.20;6.40;;;10.50;99.90;;;;;;4071696;29;20256;-94
2022/03/15 00:34:48;;;;;;;19.70;7.30;;;10.50;99.90;;;;;;4103162;28;20186;-93
2022/03/15 00:36:48;;;;;;;22.02;6.38;;;10.50;99.90;;;;;;4087032;29;20170;-93
2022/03/15 00:38:49;;;;;;;13.95;6.07;;;10.40;99.90;;;;;;4103094;28;20181;-94
2022/03/15 00:40:51;;;;;;;15.18;6.07;;;10.40;99.90;;;;;;4087050;29;20258;-95
2022/03/15 00:42:55;;;;;;;20.67;6.28;;;10.40;99.90;;;;;;4102796;28;20211;-92
2022/03/15 00:45:01;;;;;;;25.90;6.88;;;10.40;99.90;;;;;;4102967;28;20238;-93
2022/03/15 00:47:05;;;;;;;19.38;6.75;;;10.40;99.90;;;;;;4071197;29;20283;-93
2022/03/15 00:49:06;;;;;;;19.43;6.57;;;10.40;99.90;;;;;;4102856;28;20266;-93
2022/03/15 00:51:06;;;;;;;20.17;6.82;;;10.40;99.90;;;;;;4102926;28;20182;-93
2022/03/15 00:53:09;;;;;;;19.15;6.32;;;10.40;99.90;;;;;;4071226;29;20621;-94
2022/03/15 00:55:10;;;;;;;21.67;7.17;;;10.40;99.90;;;;;;4102541;28;20221;-94
2022/03/15 00:57:11;;;;;;;20.95;6.82;;;10.40;99.90;;;;;;4102733;28;20202;-93
2022/03/15 00:59:14;;;;;;;18.52;6.78;;;10.30;99.90;;;;;;4071293;29;20286;-93
2022/03/15 01:01:14;;;;;;;18.23;6.80;;;10.40;99.90;;;;;;4086853;29;20182;-93
2022/03/15 01:03:16;;;;;;;25.77;7.47;;;10.40;99.90;;;;;;4086985;29;20249;-95
2022/03/15 01:05:17;;;;;;;21.67;7.00;;;10.50;99.90;;;;;;4102641;28;20194;-93
2022/03/15 01:07:18;;;;;;;24.35;8.25;;;10.50;99.90;;;;;;4086957;28;20210;-93
2022/03/15 01:09:19;;;;;;;21.92;7.32;;;10.60;99.90;;;;;;4102524;28;20628;-95
2022/03/15 01:11:20;;;;;;;20.08;7.28;;;10.80;99.90;;;;;;4070776;29;20271;-94
2022/03/15 01:13:21;;;;;;;22.10;7.40;;;10.80;99.90;;;;;;4070815;29;20202;-95
2022/03/15 01:15:24;;;;;;;19.07;7.07;;;10.60;99.90;;;;;;4070781;29;20728;-94
2022/03/15 01:17:25;;;;;;;15.27;6.57;;;10.40;99.90;;;;;;4086743;29;20171;-94
2022/03/15 01:19:26;;;;;;;15.15;6.43;;;10.50;99.90;;;;;;4102416;28;20263;-94
2022/03/15 01:21:28;;;;;;;18.30;6.80;;;10.30;99.90;;;;;;4070726;29;20204;-94
2022/03/15 01:23:28;;;;;;;22.83;7.50;;;10.40;99.90;;;;;;4070384;29;20208;-93
2022/03/15 01:25:30;;;;;;;18.05;6.85;;;10.40;99.90;;;;;;4070519;29;20283;-94
2022/03/15 01:27:31;;;;;;;22.40;7.30;;;10.40;99.90;;;;;;4102374;28;20540;-94
2022/03/15 01:29:31;;;;;;;20.20;6.97;;;10.40;99.90;;;;;;4086630;29;20183;-94
2022/03/15 01:31:34;;;;;;;21.00;6.53;;;10.30;99.90;;;;;;4070854;29;20180;-94
2022/03/15 01:33:35;;;;;;;17.37;6.73;;;10.30;99.90;;;;;;4070515;29;20172;-93
2022/03/15 01:35:37;;;;;;;20.80;6.60;;;10.10;99.90;;;;;;4101867;28;20202;-93
2022/03/15 01:37:38;;;;;;;17.15;6.40;;;10.00;99.90;;;;;;4102133;28;20214;-94
2022/03/15 01:39:43;;;;;;;24.05;7.03;;;10.00;99.90;;;;;;4086207;29;20172;-94
2022/03/15 01:41:45;;;;;;;19.23;6.70;;;10.00;99.90;;;;;;4101967;28;20670;-94
2022/03/15 01:43:47;;;;;;;23.47;6.93;;;10.10;99.90;;;;;;4070385;29;20212;-94
2022/03/15 01:45:49;;;;;;;16.20;6.82;;;10.20;99.90;;;;;;4070645;29;20207;-93
2022/03/15 01:47:50;;;;;;;20.48;6.72;;;10.20;99.90;;;;;;4101838;28;20691;-93
2022/03/15 01:49:55;;;;;;;18.25;7.28;;;10.10;99.90;;;;;;4070625;29;20255;-94
2022/03/15 01:51:56;;;;;;;22.80;7.00;;;10.10;99.90;;;;;;4070461;29;20191;-94
2022/03/15 01:53:57;;;;;;;17.57;6.90;;;10.10;99.90;;;;;;4102163;28;20586;-94
2022/03/15 01:56:01;;;;;;;19.13;7.20;;;10.00;99.90;;;;;;4086005;29;20191;-93
2022/03/15 01:58:02;;;;;;;21.70;7.00;;;10.10;99.90;;;;;;4101992;28;20222;-95
2022/03/15 02:00:04;;;;;;;20.85;7.80;;;10.10;99.90;;;;;;4086222;29;20258;-93
2022/03/15 02:02:06;;;;;;;21.97;7.73;;;10.10;99.90;;;;;;4101609;28;20226;-93
2022/03/15 02:04:07;;;;;;;17.23;7.10;;;10.10;99.90;;;;;;4085787;29;20219;-93
2022/03/15 02:06:09;;;;;;;19.55;7.65;;;10.20;99.90;;;;;;4101726;28;20187;-94
2022/03/15 02:08:12;;;;;;;21.80;7.97;;;10.20;99.90;;;;;;4070127;29;20271;-94
2022/03/15 02:10:13;;;;;;;20.23;8.17;;;10.20;99.90;;;;;;4101400;28;20168;-94
2022/03/15 02:12:14;;;;;;;21.10;8.70;;;10.30;99.90;;;;;;4101478;28;20342;-92
2022/03/15 02:14:15;;;;;;;22.13;8.50;;;10.20;99.90;;;;;;4069886;29;20169;-93
2022/03/15 02:16:16;;;;;;;20.52;7.55;;;10.20;99.90;;;;;;4069688;29;20207;-95
2022/03/15 02:18:19;;;;;;;19.50;8.40;;;10.10;99.90;;;;;;4070042;29;20180;-93
2022/03/15 02:20:19;;;;;;;18.38;7.95;;;10.10;99.90;;;;;;4101522;28;20652;-94
2022/03/15 02:22:22;;;;;;;19.65;7.85;;;10.00;99.90;;;;;;4069953;29;20201;-94
2022/03/15 02:24:23;;;;;;;18.93;8.27;;;10.00;99.90;;;;;;4101532;28;20185;-94
2022/03/15 02:26:24;;;;;;;23.00;7.90;;;10.00;99.90;;;;;;4085458;29;20271;-93
2022/03/15 02:28:25;;;;;;;22.40;9.40;;;10.10;99.90;;;;;;4101210;28;20179;-93
2022/03/15 02:30:26;;;;;;;29.23;9.40;;;10.00;99.90;;;;;;4101251;28;20211;-94
2022/03/15 02:32:26;;;;;;;21.73;8.48;;;10.00;99.90;;;;;;4085571;29;20176;-93
2022/03/15 02:34:27;;;;;;;17.47;7.77;;;9.90;99.90;;;;;;4069516;29;20284;-95
2022/03/15 02:36:28;;;;;;;20.80;8.10;;;9.90;99.90;;;;;;4069611;29;20788;-92
2022/03/15 02:38:29;;;;;;;19.20;8.37;;;9.90;99.90;;;;;;4101073;28;20202;-93
2022/03/15 02:40:29;;;;;;;18.90;8.13;;;9.90;99.90;;;;;;4069443;29;20262;-92
2022/03/15 02:42:30;;;;;;;19.80;8.70;;;10.10;99.90;;;;;;4100490;28;20198;-94
2022/03/15 02:44:31;;;;;;;22.73;9.77;;;10.20;99.90;;;;;;4069524;29;20208;-93
2022/03/15 02:46:32;;;;;;;20.25;8.63;;;10.20;99.90;;;;;;4101307;28;20197;-95
2022/03/15 02:48:34;;;;;;;22.35;6.38;;;10.30;99.90;;;;;;4085335;29;20184;-93
2022/03/15 02:50:34;;;;;;;13.95;6.55;;;10.20;99.90;;;;;;4085656;29;20179;-93
2022/03/15 02:52:36;;;;;;;18.00;6.70;;;10.00;99.90;;;;;;4101084;28;20277;-92
2022/03/15 02:54:40;;;;;;;16.42;6.35;;;10.00;99.90;;;;;;4069532;29;20172;-92
2022/03/15 02:56:45;;;;;;;16.37;6.00;;;10.10;99.90;;;;;;4069338;29;20179;-94
2022/03/15 02:58:45;;;;;;;14.18;6.00;;;10.20;99.90;;;;;;4069415;29;20180;-95
2022/03/15 03:00:46;;;;;;;18.98;6.57;;;10.20;99.90;;;;;;4100965;28;20234;-93
2022/03/15 03:02:47;;;;;;;15.68;5.25;;;10.30;99.90;;;;;;4069105;29;20207;-95
2022/03/15 03:04:48;;;;;;;14.00;5.70;;;10.20;99.90;;;;;;4069336;29;20180;-94
2022/03/15 03:06:49;;;;;;;11.50;5.27;;;10.00;99.90;;;;;;4069217;29;20160;-94
2022/03/15 03:08:50;;;;;;;19.73;5.77;;;9.80;99.90;;;;;;4100908;28;20179;-94
2022/03/15 03:10:52;;;;;;;14.80;5.60;;;9.70;99.90;;;;;;4100656;28;20194;-93
2022/03/15 03:12:54;;;;;;;15.30;5.63;;;9.60;99.90;;;;;;4084581;29;20188;-94
2022/03/15 03:14:55;;;;;;;17.00;5.50;;;9.60;99.90;;;;;;4100591;28;20198;-94
2022/03/15 03:16:56;;;;;;;17.10;5.63;;;10.00;99.90;;;;;;4069200;29;20181;-93
2022/03/15 03:18:59;;;;;;;15.93;5.37;;;10.30;99.90;;;;;;4100534;28;20608;-93
2022/03/15 03:21:01;;;;;;;14.27;4.90;;;10.40;99.90;;;;;;4084405;29;20211;-95
2022/03/15 03:23:02;;;;;;;12.87;5.63;;;10.50;99.90;;;;;;4100227;28;20218;-94
2022/03/15 03:25:07;;;;;;;13.07;4.77;;;10.60;99.90;;;;;;4084403;29;20215;-93
2022/03/15 03:27:11;;;;;;;13.13;5.20;;;10.30;99.90;;;;;;4100535;28;20178;-92
2022/03/15 03:29:13;;;;;;;17.47;4.97;;;10.10;99.90;;;;;;4068928;29;20180;-93
2022/03/15 03:31:14;;;;;;;16.17;6.00;;;10.00;99.90;;;;;;4100435;28;20182;-94
2022/03/15 03:33:17;;;;;;;14.80;5.30;;;10.50;99.90;;;;;;4068969;29;20249;-93
2022/03/15 03:35:17;;;;;;;14.90;5.50;;;11.10;99.90;;;;;;4100312;28;20210;-93
2022/03/15 03:37:18;;;;;;;19.53;5.80;;;11.40;99.90;;;;;;4084661;28;20220;-93
2022/03/15 03:39:19;;;;;;;13.93;5.33;;;11.50;99.90;;;;;;4068883;29;20271;-94
2022/03/15 03:41:20;;;;;;;18.50;6.27;;;11.20;99.90;;;;;;4100157;28;20667;-93
2022/03/15 03:43:21;;;;;;;14.23;5.93;;;11.20;99.90;;;;;;4068836;29;20239;-94
2022/03/15 03:45:22;;;;;;;15.23;5.10;;;10.70;99.90;;;;;;4100117;28;20257;-93
2022/03/15 03:47:23;;;;;;;14.63;5.40;;;10.80;99.90;;;;;;4084463;29;20184;-94
2022/03/15 03:49:24;;;;;;;15.50;5.30;;;10.90;99.90;;;;;;4100496;28;20568;-93
2022/03/15 03:51:24;;;;;;;12.77;4.53;;;10.70;99.90;;;;;;4084571;29;20176;-93
2022/03/15 03:53:25;;;;;;;14.43;4.60;;;10.50;99.90;;;;;;4067985;29;20580;-93
2022/03/15 03:55:26;;;;;;;14.67;4.83;;;10.40;99.90;;;;;;4084081;29;20294;-93
2022/03/15 03:57:27;;;;;;;14.30;5.17;;;10.60;99.90;;;;;;4100402;28;20202;-93
2022/03/15 03:59:28;;;;;;;12.63;4.97;;;11.10;99.90;;;;;;4068720;29;20586;-94
2022/03/15 04:01:28;;;;;;;17.33;4.97;;;11.20;99.90;;;;;;4100030;28;20663;-93
2022/03/15 04:03:31;;;;;;;13.33;5.00;;;11.50;99.90;;;;;;4068789;29;20208;-94
2022/03/15 04:05:36;;;;;;;13.40;5.37;;;11.50;99.90;;;;;;4069011;29;20294;-91
2022/03/15 04:07:39;;;;;;;18.87;5.43;;;11.50;99.90;;;;;;4100168;28;20233;-91
2022/03/15 04:09:40;;;;;;;11.53;4.73;;;11.40;99.90;;;;;;4068514;29;20227;-92
2022/03/15 04:11:41;;;;;;;14.37;4.50;;;11.30;99.90;;;;;;4099780;29;20571;-92
2022/03/15 04:13:42;;;;;;;12.97;4.97;;;11.20;99.90;;;;;;4084147;29;20183;-93
2022/03/15 04:15:43;;;;;;;12.93;4.93;;;11.00;99.90;;;;;;4100135;28;20281;-91
2022/03/15 04:17:44;;;;;;;13.73;4.33;;;11.00;99.90;;;;;;4068499;29;20220;-92
2022/03/15 04:19:45;;;;;;;12.23;5.10;;;11.10;99.90;;;;;;4099929;28;20171;-91
2022/03/15 04:21:45;;;;;;;17.67;4.33;;;11.10;99.90;;;;;;4068488;29;20184;-92
2022/03/15 04:23:46;;;;;;;15.07;4.30;;;10.90;99.90;;;;;;4068340;29;20787;-93
2022/03/15 04:25:47;;;;;;;22.10;4.53;;;10.50;99.90;;;;;;4068582;29;20188;-94
2022/03/15 04:27:48;;;;;;;12.13;4.23;;;10.60;99.90;;;;;;4100091;28;20222;-91
2022/03/15 04:29:48;;;;;;;15.03;4.30;;;10.70;99.90;;;;;;4068415;29;20172;-92
2022/03/15 04:31:49;;;;;;;20.20;5.17;;;10.80;99.90;;;;;;4099989;28;20175;-91
2022/03/15 04:33:50;;;;;;;12.30;4.03;;;10.80;99.90;;;;;;4084079;28;20187;-92
2022/03/15 04:35:51;;;;;;;19.70;4.40;;;10.70;99.90;;;;;;4068448;29;20319;-92
2022/03/15 04:37:52;;;;;;;16.63;4.60;;;10.70;99.90;;;;;;4100092;29;20203;-92
2022/03/15 04:39:53;;;;;;;15.47;4.07;;;10.80;99.90;;;;;;4068331;29;20176;-91
2022/03/15 04:41:54;;;;;;;12.57;4.10;;;10.50;99.90;;;;;;4068446;29;20577;-91
2022/03/15 04:43:55;;;;;;;12.53;4.33;;;10.40;99.90;;;;;;4068270;29;20649;-92
2022/03/15 04:45:56;;;;;;;17.93;3.87;;;10.00;99.90;;;;;;4084092;29;20211;-93
2022/03/15 04:47:56;;;;;;;14.33;3.57;;;9.70;99.90;;;;;;4068270;29;20228;-92
2022/03/15 04:49:57;;;;;;;12.77;3.80;;;9.40;99.90;;;;;;4068096;29;20172;-90
2022/03/15 04:51:58;;;;;;;15.13;4.07;;;9.40;99.90;;;;;;4099797;28;20171;-92
2022/03/15 04:53:58;;;;;;;11.33;3.40;;;9.60;99.90;;;;;;4099783;28;20183;-92
2022/03/15 04:55:59;;;;;;;8.83;3.67;;;9.50;99.90;;;;;;4068190;29;20764;-92
2022/03/15 04:58:00;;;;;;;9.20;3.47;;;9.50;99.90;;;;;;4099789;28;20183;-92
2022/03/15 05:00:01;;;;;;;21.03;3.50;;;9.80;99.90;;;;;;4068363;29;20220;-92
2022/03/15 05:02:03;;;;;;;15.20;4.77;;;9.60;99.90;;;;;;4099993;28;20179;-91
2022/03/15 05:04:04;;;;;;;10.07;3.40;;;9.40;99.90;;;;;;4068376;29;20256;-91
2022/03/15 05:06:04;;;;;;;10.20;3.80;;;9.30;99.90;;;;;;4070359;29;20294;-93
2022/03/15 05:08:05;;;;;;;12.07;3.80;;;9.40;99.90;;;;;;4070801;29;20187;-93
2022/03/15 05:12:26;;;;;;;10.97;3.73;;;9.40;99.90;;;;;;4118342;28;20181;-93
2022/03/15 05:14:26;;;;;;;13.67;3.90;;;9.30;99.90;;;;;;4086532;28;20544;-93
2022/03/15 05:16:28;;;;;;;11.57;3.60;;;9.30;99.90;;;;;;4102004;28;20322;-92
2022/03/15 05:18:29;;;;;;;9.33;2.97;;;9.30;99.90;;;;;;4070639;29;20187;-93
2022/03/15 05:20:30;;;;;;;12.27;3.77;;;9.20;99.90;;;;;;4070892;29;20626;-92
2022/03/15 05:22:32;;;;;;;14.30;3.60;;;9.30;99.90;;;;;;4070887;29;20574;-90
2022/03/15 05:24:32;;;;;;;12.73;3.70;;;9.20;99.90;;;;;;4102361;29;20179;-92
2022/03/15 05:26:33;;;;;;;11.03;3.37;;;9.30;99.90;;;;;;4086090;29;20250;-93
2022/03/15 05:28:34;;;;;;;18.83;3.57;;;9.40;99.90;;;;;;4070439;29;20192;-91
2022/03/15 05:30:36;;;;;;;8.30;3.90;;;9.40;99.90;;;;;;4102293;28;20206;-93
2022/03/15 05:32:36;;;;;;;13.03;3.13;;;9.40;99.90;;;;;;4102129;28;20592;-92
2022/03/15 05:34:37;;;;;;;9.57;3.30;;;9.40;99.90;;;;;;4102076;28;20182;-92
2022/03/15 05:36:38;;;;;;;14.07;3.40;;;9.60;99.90;;;;;;4070924;29;20180;-92
2022/03/15 05:38:38;;;;;;;9.77;3.33;;;9.70;99.90;;;;;;4070850;29;20180;-92
2022/03/15 05:40:39;;;;;;;10.33;3.23;;;9.80;99.90;;;;;;4102197;28;20179;-92
2022/03/15 05:42:40;;;;;;;10.07;3.07;;;9.70;99.90;;;;;;4070442;29;20207;-90
2022/03/15 05:44:40;;;;;;;9.63;3.30;;;9.70;99.90;;;;;;4070405;29;20648;-92
2022/03/15 05:46:41;;;;;;;12.20;3.20;;;9.70;99.90;;;;;;4102122;28;20182;-91
2022/03/15 05:48:42;;;;;;;12.03;3.20;;;9.60;99.90;;;;;;4070712;29;20172;-91
2022/03/15 05:50:43;;;;;;;15.33;3.50;;;9.60;99.90;;;;;;4101996;28;20183;-91
2022/03/15 05:52:44;;;;;;;8.83;2.90;;;9.50;99.90;;;;;;4086267;29;20203;-93
2022/03/15 05:54:45;;;;;;;14.73;2.97;;;9.50;99.90;;;;;;4070205;29;20180;-92
2022/03/15 05:56:45;;;;;;;9.33;3.50;;;9.50;99.90;;;;;;4070151;29;20180;-92
2022/03/15 05:58:46;;;;;;;10.27;3.13;;;9.50;99.90;;;;;;4101732;28;20198;-93
2022/03/15 06:00:47;;;;;;;11.53;3.23;;;9.60;99.90;;;;;;4070573;29;20251;-92
2022/03/15 06:02:48;;;;;;;14.53;3.20;;;9.50;99.90;;;;;;4101812;28;20250;-93
2022/03/15 06:04:49;;;;;;;10.00;3.53;;;9.40;99.90;;;;;;4070142;29;20210;-92
2022/03/15 06:06:50;;;;;;;9.37;3.43;;;9.40;99.90;;;;;;4070392;29;20176;-93
2022/03/15 06:08:51;;;;;;;9.70;3.60;;;9.40;99.90;;;;;;4070500;29;20214;-92
2022/03/15 06:10:52;;;;;;;9.37;2.83;;;9.40;99.90;;;;;;4101705;28;20186;-90
2022/03/15 06:12:53;;;;;;;12.40;3.70;;;9.40;99.90;;;;;;4069989;29;20180;-93
2022/03/15 06:14:53;;;;;;;12.03;3.00;;;9.50;99.90;;;;;;4101372;28;20210;-93
2022/03/15 06:16:54;;;;;;;10.83;3.13;;;9.50;99.90;;;;;;4069045;29;20530;-92
2022/03/15 06:18:55;;;;;;;10.93;3.20;;;9.40;99.90;;;;;;4101321;28;20651;-92
2022/03/15 06:20:56;;;;;;;11.80;3.43;;;9.40;99.90;;;;;;4069935;29;20172;-89
2022/03/15 06:22:57;;;;;;;12.23;3.03;;;9.40;99.90;;;;;;4101510;28;20206;-94
2022/03/15 06:24:59;;;;;;;14.20;3.93;;;9.50;99.90;;;;;;4085522;29;20207;-90
2022/03/15 06:27:00;;;;;;;11.63;3.00;;;9.40;99.90;;;;;;4101500;28;20171;-93
2022/03/15 06:29:02;;;;;;;10.73;3.50;;;9.60;99.90;;;;;;4069787;29;20263;-93
2022/03/15 06:31:04;;;;;;;16.73;3.47;;;9.80;99.90;;;;;;4101646;28;20174;-92
2022/03/15 06:33:05;;;;;;;13.70;3.50;;;9.90;99.90;;;;;;4085392;29;20262;-93
2022/03/15 06:35:07;;;;;;;10.63;3.20;;;9.80;99.90;;;;;;4101453;28;20310;-92
2022/03/15 06:37:07;;;;;;;11.10;3.40;;;9.80;99.90;;;;;;4101383;28;20560;-92
2022/03/15 06:39:08;;;;;;;9.23;3.33;;;10.00;99.90;;;;;;4085532;29;20180;-91
2022/03/15 06:41:12;;;;;;;13.23;3.47;;;10.00;99.90;;;;;;4101020;28;20182;-93
2022/03/15 06:43:13;;;;;;;17.27;3.73;;;10.10;99.90;;;;;;4085145;29;20309;-93
2022/03/15 06:45:15;;;;;;;12.60;3.17;;;10.20;99.90;;;;;;4100972;28;20187;-93
2022/03/15 06:47:16;;;;;;;11.07;3.33;;;10.30;99.90;;;;;;4069452;29;20180;-92
2022/03/15 06:49:16;;;;;;;12.30;3.53;;;10.40;99.90;;;;;;4101092;28;20205;-93
2022/03/15 06:51:17;;;;;;;12.77;3.80;;;10.50;99.90;;;;;;4069767;29;20220;-93
2022/03/15 06:53:18;;;;;;;13.13;3.60;;;10.50;99.90;;;;;;4101043;28;20183;-90
2022/03/15 06:55:19;;;;;;;13.07;3.90;;;10.40;99.90;;;;;;4085295;29;20196;-94
2022/03/15 06:57:20;;;;;;;12.70;3.27;;;10.40;99.90;;;;;;4101023;28;20651;-92
2022/03/15 06:59:20;;;;;;;10.33;3.67;;;10.30;99.90;;;;;;4101106;28;20175;-91
2022/03/15 07:01:21;;;;;;;12.30;3.55;;;10.40;99.90;;;;;;4084835;29;20171;-93
2022/03/15 07:03:22;;;;;;;14.27;3.73;;;10.40;99.90;;;;;;4069271;29;20208;-92
2022/03/15 07:05:22;;;;;;;26.00;3.70;;;10.60;99.90;;;;;;4100774;28;20331;-93
2022/03/15 07:07:23;;;;;;;12.32;3.65;;;10.60;99.90;;;;;;4069392;29;20277;-92
2022/03/15 07:09:24;;;;;;;12.35;3.88;;;10.70;99.90;;;;;;4101145;28;20167;-92
2022/03/15 07:11:24;;;;;;;11.87;3.40;;;10.70;99.90;;;;;;4069074;29;20187;-94
2022/03/15 07:13:25;;;;;;;11.43;3.40;;;10.60;99.90;;;;;;4100769;28;20226;-91
2022/03/15 07:15:26;;;;;;;11.73;3.50;;;10.50;99.90;;;;;;4069225;29;20215;-93
2022/03/15 07:17:27;;;;;;;12.17;3.60;;;10.50;99.90;;;;;;4100703;29;20632;-93
2022/03/15 07:19:28;;;;;;;11.23;3.20;;;10.50;99.90;;;;;;4100624;28;20175;-95
2022/03/15 07:21:29;;;;;;;9.77;3.63;;;10.30;99.90;;;;;;4068955;29;20172;-93
2022/03/15 07:23:29;;;;;;;13.70;3.55;;;10.30;99.90;;;;;;4068957;29;20208;-94
2022/03/15 07:25:30;;;;;;;14.53;3.60;;;10.40;99.90;;;;;;4068946;29;20244;-93
2022/03/15 07:27:31;;;;;;;23.80;3.90;;;10.40;99.90;;;;;;4100405;28;20241;-94
2022/03/15 07:29:31;;;;;;;14.83;3.57;;;10.30;99.90;;;;;;4068814;29;20796;-93
2022/03/15 07:31:32;;;;;;;13.43;3.80;;;10.20;99.90;;;;;;4100299;28;20193;-92
2022/03/15 07:33:33;;;;;;;11.87;3.30;;;10.20;99.90;;;;;;4068520;29;20172;-92
2022/03/15 07:35:34;;;;;;;12.43;3.40;;;10.10;99.90;;;;;;4100318;28;20245;-93
2022/03/15 07:37:34;;;;;;;10.47;3.13;;;10.10;99.90;;;;;;4068832;29;20172;-92
2022/03/15 07:39:35;;;;;;;13.33;3.33;;;10.10;99.90;;;;;;4100520;28;20179;-92
2022/03/15 07:41:39;;;;;;;9.85;3.83;;;10.30;99.90;;;;;;4068555;29;20258;-93
2022/03/15 07:43:40;;;;;;;14.45;3.83;;;10.40;99.90;;;;;;4100373;28;20299;-93
2022/03/15 07:45:41;;;;;;;14.77;4.20;;;10.60;99.90;;;;;;4068553;29;20196;-92
2022/03/15 07:47:41;;;;;;;15.60;4.10;;;10.70;99.90;;;;;;4100523;28;20179;-93
2022/03/15 07:49:42;;;;;;;16.57;3.97;;;10.60;99.90;;;;;;4068813;29;20191;-92
2022/03/15 07:51:44;;;;;;;14.57;4.40;;;10.50;99.90;;;;;;4068791;29;20621;-93
2022/03/15 07:53:44;;;;;;;17.43;4.23;;;10.60;99.90;;;;;;4068599;29;20215;-93
2022/03/15 07:55:45;;;;;;;16.43;4.13;;;10.50;99.90;;;;;;4099931;28;20616;-93
2022/03/15 07:57:46;;;;;;;12.57;3.73;;;10.60;99.90;;;;;;4068785;29;20175;-93
2022/03/15 07:59:46;;;;;;;12.77;3.83;;;10.70;99.90;;;;;;4100331;28;20187;-93
2022/03/15 08:01:47;;;;;;;11.33;3.73;;;10.70;99.90;;;;;;4068791;29;20626;-94
2022/03/15 08:03:48;;;;;;;21.48;3.88;;;10.70;99.90;;;;;;4068693;29;20756;-93
2022/03/15 08:05:49;;;;;;;16.00;3.97;;;10.80;99.90;;;;;;4084307;29;20227;-94
2022/03/15 08:07:50;;;;;;;16.73;4.50;;;10.90;99.90;;;;;;4100335;28;20297;-90
2022/03/15 08:09:51;;;;;;;8.90;3.60;;;10.90;99.90;;;;;;4084555;29;20206;-94
2022/03/15 08:11:52;;;;;;;12.38;3.75;;;10.80;99.90;;;;;;4068389;29;20726;-92
2022/03/15 08:13:53;;;;;;;13.18;3.92;;;10.80;99.90;;;;;;4084104;29;20187;-93
2022/03/15 08:15:54;;;;;;;11.02;3.28;;;10.80;99.90;;;;;;4100116;28;20231;-92
2022/03/15 08:17:55;;;;;;;15.85;3.95;;;10.90;99.90;;;;;;4084164;29;20226;-94
2022/03/15 08:19:57;;;;;;;11.70;3.35;;;10.90;99.90;;;;;;4068535;29;20271;-93
2022/03/15 08:22:01;;;;;;;10.03;3.77;;;10.80;99.90;;;;;;4068366;29;20180;-92
2022/03/15 08:24:02;;;;;;;12.80;3.60;;;10.90;99.90;;;;;;4099882;28;20219;-92
2022/03/15 08:26:02;;;;;;;14.80;4.15;;;11.10;99.90;;;;;;4083595;29;20237;-92
2022/03/15 08:28:03;;;;;;;16.03;4.03;;;11.30;99.90;;;;;;4067531;29;20172;-93
2022/03/15 08:30:05;;;;;;;11.13;4.17;;;12.10;99.90;;;;;;4099281;28;20222;-92
2022/03/15 08:32:06;;;;;;;20.75;5.30;;;12.40;99.90;;;;;;4099041;28;20618;-92
2022/03/15 08:34:07;;;;;;;14.50;4.10;;;12.50;99.90;;;;;;4099180;28;20190;-93
2022/03/15 08:36:08;;;;;;;16.60;4.30;;;12.70;99.90;;;;;;4099296;28;20199;-92
2022/03/15 08:38:11;;;;;;;10.77;3.80;;;12.20;99.90;;;;;;4067659;29;20213;-93
2022/03/15 08:40:13;;;;;;;24.03;4.87;;;11.80;99.90;;;;;;4084421;29;20178;-92
2022/03/15 08:42:14;;;;;;;17.07;3.87;;;11.80;99.90;;;;;;4102369;28;20175;-93
2022/03/15 08:44:14;;;;;;;16.53;4.53;;;11.30;99.90;;;;;;4086365;28;20266;-92
2022/03/15 08:46:15;;;;;;;20.80;3.80;;;11.40;99.90;;;;;;4070357;29;20192;-93
2022/03/15 08:48:16;;;;;;;39.10;5.13;;;11.00;99.90;;;;;;4070417;29;20180;-91
2022/03/15 08:50:18;;;;;;;19.87;4.23;;;10.80;99.90;;;;;;4101910;28;20688;-92
2022/03/15 08:52:18;;;;;;;19.57;3.87;;;10.60;99.90;;;;;;4086456;29;20278;-92
2022/03/15 08:54:20;;;;;;;11.73;3.57;;;10.50;99.90;;;;;;4101813;28;20242;-91
2022/03/15 08:56:20;;;;;;;14.07;3.77;;;10.30;99.90;;;;;;4070174;29;20237;-92
2022/03/15 08:58:21;;;;;;;10.73;3.45;;;10.30;99.90;;;;;;4070514;29;20179;-94
2022/03/15 09:00:22;;;;;;;9.93;3.60;;;10.20;99.90;;;;;;4099210;28;20187;-93
2022/03/15 09:02:23;;;;;;;10.80;3.43;;;10.20;99.90;;;;;;4062527;29;20184;-93
2022/03/15 09:04:25;;;;;;;14.73;3.20;;;10.10;99.90;;;;;;4084098;29;20645;-93
2022/03/15 09:06:26;;;;;;;13.03;3.70;;;10.00;99.90;;;;;;4069986;29;20293;-92
2022/03/15 09:08:26;;;;;;;13.13;3.53;;;10.00;99.90;;;;;;4070073;29;20257;-93
2022/03/15 09:10:27;;;;;;;15.93;3.53;;;9.90;99.90;;;;;;4085574;29;20260;-92
2022/03/15 09:12:28;;;;;;;8.43;3.33;;;9.90;99.90;;;;;;4069875;29;20672;-92
2022/03/15 09:14:30;;;;;;;8.90;3.70;;;10.10;99.90;;;;;;4085573;29;20172;-93
2022/03/15 09:16:30;;;;;;;10.27;3.10;;;10.10;99.90;;;;;;4085295;29;20191;-94
2022/03/15 09:18:32;;;;;;;10.03;3.00;;;10.10;99.90;;;;;;4084444;29;20179;-92
2022/03/15 09:20:33;;;;;;;8.90;3.30;;;10.10;99.90;;;;;;4068701;29;20338;-91
2022/03/15 09:22:34;;;;;;;12.70;3.40;;;10.00;99.90;;;;;;4085531;29;20176;-91
2022/03/15 09:24:36;;;;;;;14.40;3.60;;;9.90;99.90;;;;;;4069629;29;20184;-93
2022/03/15 09:26:41;;;;;;;11.73;3.27;;;10.10;99.90;;;;;;4085553;29;20168;-92
2022/03/15 09:28:44;;;;;;;13.37;3.50;;;10.50;99.90;;;;;;4069886;29;20660;-92
2022/03/15 09:30:45;;;;;;;12.10;3.57;;;10.70;99.90;;;;;;4085774;29;20239;-91
2022/03/15 09:32:47;;;;;;;12.00;3.43;;;11.20;99.90;;;;;;4070576;29;20645;-94
2022/03/15 09:34:48;;;;;;;9.67;3.50;;;11.10;99.90;;;;;;4070298;29;20191;-89
2022/03/15 09:36:50;;;;;;;12.30;3.67;;;11.60;99.90;;;;;;4070175;29;20254;-91
2022/03/15 09:38:51;;;;;;;12.03;3.30;;;11.90;99.90;;;;;;4070405;29;20276;-93
2022/03/15 09:40:53;;;;;;;12.97;3.87;;;11.80;99.90;;;;;;4070439;29;20184;-89
2022/03/15 09:42:58;;;;;;;18.03;3.70;;;11.60;99.90;;;;;;4070519;29;20212;-91
2022/03/15 09:45:00;;;;;;;36.17;4.60;;;11.50;99.90;;;;;;4070441;29;20550;-92
2022/03/15 09:47:05;;;;;;;21.57;4.43;;;11.50;99.90;;;;;;4070135;29;20179;-92
2022/03/15 09:49:07;;;;;;;21.73;4.40;;;11.60;99.90;;;;;;4069882;29;20176;-92
2022/03/15 09:51:13;;;;;;;17.67;4.23;;;11.80;99.90;;;;;;4085323;29;20218;-93
2022/03/15 09:53:15;;;;;;;14.67;3.87;;;11.50;99.90;;;;;;4069942;29;20271;-93
2022/03/15 09:55:17;;;;;;;12.90;3.70;;;11.50;99.90;;;;;;4070369;29;20202;-93
2022/03/15 09:57:19;;;;;;;13.03;3.90;;;11.30;99.90;;;;;;4085816;29;20175;-92
2022/03/15 09:59:21;;;;;;;13.67;4.40;;;11.00;99.90;;;;;;4070079;29;20208;-93
2022/03/15 10:01:22;;;;;;;6.73;3.27;;;11.10;99.90;;;;;;4070010;29;20220;-94
2022/03/15 10:03:23;;;;;;;16.53;3.80;;;10.90;99.90;;;;;;4085842;29;20211;-92
2022/03/15 10:05:24;;;;;;;8.50;3.43;;;10.70;99.90;;;;;;4070238;29;20204;-93
2022/03/15 10:07:25;;;;;;;13.83;4.20;;;10.70;99.90;;;;;;4085645;29;20655;-92
2022/03/15 10:09:27;;;;;;;17.37;4.50;;;10.70;99.90;;;;;;4069903;29;20199;-93
2022/03/15 10:11:28;;;;;;;12.03;4.20;;;10.60;99.90;;;;;;4085815;29;20205;-93
2022/03/15 10:13:29;;;;;;;13.80;3.97;;;10.80;99.90;;;;;;4085745;29;20711;-93
2022/03/15 10:15:30;;;;;;;8.90;3.43;;;11.00;99.90;;;;;;4069951;29;20232;-92
2022/03/15 10:17:44;;;;;;;6.83;3.23;;;11.00;99.90;;;;;;4085573;29;20258;-90
2022/03/15 10:19:56;;;;;;;9.30;3.20;;;10.90;99.90;;;;;;4069831;29;20639;-91
2022/03/15 10:21:58;;;;;;;13.52;3.58;;;10.90;99.90;;;;;;4070051;29;20183;-90
2022/03/15 10:23:59;;;;;;;13.30;3.37;;;11.00;99.90;;;;;;4069854;29;20242;-92
2022/03/15 10:25:59;;;;;;;10.23;3.13;;;11.40;99.90;;;;;;4069431;29;20580;-92
2022/03/15 10:28:03;;;;;;;10.60;3.45;;;11.30;99.90;;;;;;4069786;29;20172;-91